sensor_id;sensor_type;location;lat;lon;timestamp;P1;durP1;ratioP1;P2;durP2;ratioP2
59986;SDS011;46181;51.498;5.392;2024-01-06T00:01:35;0.42;;;0.392;;
59986;SDS011;46181;51.498;5.392;2024-01-06T00:06:05;0.308;;;0.308;;
59986;SDS011;46181;51.498;5.392;2024-01-06T00:10:35;0.1;;;0.1;;
59986;SDS011;46181;51.498;5.392;2024-01-06T00:15:06;0.1;;;0.1;;
59986;SDS011;46181;51.498;5.392;2024-01-06T00:19:35;0.1;;;0.1;;
59986;SDS011;46181;51.498;5.392;2024-01-06T00:24:05;0.2;;;0.2;;
59986;SDS011;46181;51.498;5.392;2024-01-06T00:28:35;0.1;;;0.1;;
59986;SDS011;46181;51.498;5.392;2024-01-06T00:33:05;0.1;;;0.1;;
59986;SDS011;46181;51.498;5.392;2024-01-06T00:37:35;0.468;;;0.468;;
59986;SDS011;46181;51.498;5.392;2024-01-06T00:42:05;0.22;;;0.22;;
59986;SDS011;46181;51.498;5.392;2024-01-06T00:46:35;0.1;;;0.1;;
59986;SDS011;46181;51.498;5.392;2024-01-06T00:51:05;0.1;;;0.1;;
59986;SDS011;46181;51.498;5.392;2024-01-06T00:55:35;0.324;;;0.212;;
59986;SDS011;46181;51.498;5.392;2024-01-06T01:00:05;0.26;;;0.26;;
59986;SDS011;46181;51.498;5.392;2024-01-06T01:04:35;0.1;;;0.1;;
59986;SDS011;46181;51.498;5.392;2024-01-06T01:09:05;0.184;;;0.184;;
59986;SDS011;46181;51.498;5.392;2024-01-06T01:13:35;0.336;;;0.336;;
59986;SDS011;46181;51.498;5.392;2024-01-06T01:18:05;0.188;;;0.188;;
59986;SDS011;46181;51.498;5.392;2024-01-06T01:22:35;0.1;;;0.1;;
59986;SDS011;46181;51.498;5.392;2024-01-06T01:27:05;0.2;;;0.2;;
59986;SDS011;46181;51.498;5.392;2024-01-06T01:31:35;0.1;;;0.1;;
59986;SDS011;46181;51.498;5.392;2024-01-06T01:36:05;0.208;;;0.208;;
59986;SDS011;46181;51.498;5.392;2024-01-06T01:40:35;0.124;;;0.124;;
59986;SDS011;46181;51.498;5.392;2024-01-06T01:45:05;0.14;;;0.14;;
59986;SDS011;46181;51.498;5.392;2024-01-06T01:49:35;0.1;;;0.1;;
59986;SDS011;46181;51.498;5.392;2024-01-06T01:54:05;0.1;;;0.1;;
59986;SDS011;46181;51.498;5.392;2024-01-06T01:58:35;0.196;;;0.196;;
59986;SDS011;46181;51.498;5.392;2024-01-06T02:03:05;0.4;;;0.4;;
59986;SDS011;46181;51.498;5.392;2024-01-06T02:07:35;0.172;;;0.172;;
59986;SDS011;46181;51.498;5.392;2024-01-06T02:12:05;0.1;;;0.1;;
59986;SDS011;46181;51.498;5.392;2024-01-06T02:16:35;0.112;;;0.112;;
59986;SDS011;46181;51.498;5.392;2024-01-06T02:21:05;0.2;;;0.2;;
59986;SDS011;46181;51.498;5.392;2024-01-06T02:25:35;0.464;;;0.436;;
59986;SDS011;46181;51.498;5.392;2024-01-06T02:30:06;0.384;;;0.384;;
59986;SDS011;46181;51.498;5.392;2024-01-06T02:34:35;0.42;;;0.42;;
59986;SDS011;46181;51.498;5.392;2024-01-06T02:39:05;0.1;;;0.1;;
59986;SDS011;46181;51.498;5.392;2024-01-06T02:43:35;0.132;;;0.132;;
59986;SDS011;46181;51.498;5.392;2024-01-06T02:48:05;0.1;;;0.1;;
59986;SDS011;46181;51.498;5.392;2024-01-06T02:52:35;0.1;;;0.1;;
59986;SDS011;46181;51.498;5.392;2024-01-06T02:57:05;0.152;;;0.152;;
59986;SDS011;46181;51.498;5.392;2024-01-06T03:01:35;0.2;;;0.2;;
59986;SDS011;46181;51.498;5.392;2024-01-06T03:06:05;0.1;;;0.1;;
59986;SDS011;46181;51.498;5.392;2024-01-06T03:10:35;0.1;;;0.1;;
59986;SDS011;46181;51.498;5.392;2024-01-06T03:15:05;0.528;;;0.528;;
59986;SDS011;46181;51.498;5.392;2024-01-06T03:19:35;0.172;;;0.172;;
59986;SDS011;46181;51.498;5.392;2024-01-06T03:24:06;0.1;;;0.1;;
59986;SDS011;46181;51.498;5.392;2024-01-06T03:28:35;0.208;;;0.208;;
59986;SDS011;46181;51.498;5.392;2024-01-06T03:33:05;0.252;;;0.252;;
59986;SDS011;46181;51.498;5.392;2024-01-06T03:37:35;0.104;;;0.104;;
59986;SDS011;46181;51.498;5.392;2024-01-06T03:42:05;0.236;;;0.236;;
59986;SDS011;46181;51.498;5.392;2024-01-06T03:46:36;0.1;;;0.1;;
59986;SDS011;46181;51.498;5.392;2024-01-06T03:51:06;0.1;;;0.1;;
59986;SDS011;46181;51.498;5.392;2024-01-06T03:55:35;0.1;;;0.1;;
59986;SDS011;46181;51.498;5.392;2024-01-06T04:00:05;0.1;;;0.1;;
59986;SDS011;46181;51.498;5.392;2024-01-06T04:04:35;0.1;;;0.1;;
59986;SDS011;46181;51.498;5.392;2024-01-06T04:09:05;0.2;;;0.2;;
59986;SDS011;46181;51.498;5.392;2024-01-06T04:13:35;0.2;;;0.2;;
59986;SDS011;46181;51.498;5.392;2024-01-06T04:18:05;0.1;;;0.1;;
59986;SDS011;46181;51.498;5.392;2024-01-06T04:22:35;0.2;;;0.2;;
59986;SDS011;46181;51.498;5.392;2024-01-06T04:27:05;0.188;;;0.188;;
59986;SDS011;46181;51.498;5.392;2024-01-06T04:31:35;0.1;;;0.1;;
59986;SDS011;46181;51.498;5.392;2024-01-06T04:36:06;0.148;;;0.148;;
59986;SDS011;46181;51.498;5.392;2024-01-06T04:40:35;0.2;;;0.2;;
59986;SDS011;46181;51.498;5.392;2024-01-06T04:45:05;0.1;;;0.1;;
59986;SDS011;46181;51.498;5.392;2024-01-06T04:49:35;0.216;;;0.216;;
59986;SDS011;46181;51.498;5.392;2024-01-06T04:54:05;0.1;;;0.1;;
59986;SDS011;46181;51.498;5.392;2024-01-06T04:58:35;2.236;;;0.536;;
59986;SDS011;46181;51.498;5.392;2024-01-06T05:03:05;0.2;;;0.2;;
59986;SDS011;46181;51.498;5.392;2024-01-06T05:07:35;0.1;;;0.1;;
59986;SDS011;46181;51.498;5.392;2024-01-06T05:12:05;0.16;;;0.16;;
59986;SDS011;46181;51.498;5.392;2024-01-06T05:16:35;0.1;;;0.1;;
59986;SDS011;46181;51.498;5.392;2024-01-06T05:21:05;0.192;;;0.192;;
59986;SDS011;46181;51.498;5.392;2024-01-06T05:25:35;0.28;;;0.28;;
59986;SDS011;46181;51.498;5.392;2024-01-06T05:30:06;0.192;;;0.192;;
59986;SDS011;46181;51.498;5.392;2024-01-06T05:34:35;0.1;;;0.1;;
59986;SDS011;46181;51.498;5.392;2024-01-06T05:39:05;0.112;;;0.112;;
59986;SDS011;46181;51.498;5.392;2024-01-06T05:43:35;0.132;;;0.132;;
59986;SDS011;46181;51.498;5.392;2024-01-06T05:48:05;0.144;;;0.144;;
59986;SDS011;46181;51.498;5.392;2024-01-06T05:52:35;0.188;;;0.188;;
59986;SDS011;46181;51.498;5.392;2024-01-06T05:57:07;0.172;;;0.172;;
59986;SDS011;46181;51.498;5.392;2024-01-06T06:01:35;0.1;;;0.1;;
59986;SDS011;46181;51.498;5.392;2024-01-06T06:06:05;0.1;;;0.1;;
59986;SDS011;46181;51.498;5.392;2024-01-06T06:10:35;0.112;;;0.112;;
59986;SDS011;46181;51.498;5.392;2024-01-06T06:15:05;0.1;;;0.1;;
59986;SDS011;46181;51.498;5.392;2024-01-06T06:19:35;0.312;;;0.312;;
59986;SDS011;46181;51.498;5.392;2024-01-06T06:24:05;0.2;;;0.2;;
59986;SDS011;46181;51.498;5.392;2024-01-06T06:28:35;0.1;;;0.1;;
59986;SDS011;46181;51.498;5.392;2024-01-06T06:33:05;1.092;;;0.7;;
59986;SDS011;46181;51.498;5.392;2024-01-06T06:37:35;0.2;;;0.2;;
59986;SDS011;46181;51.498;5.392;2024-01-06T06:42:05;0.328;;;0.328;;
59986;SDS011;46181;51.498;5.392;2024-01-06T06:46:35;0.164;;;0.164;;
59986;SDS011;46181;51.498;5.392;2024-01-06T06:51:05;0.1;;;0.1;;
59986;SDS011;46181;51.498;5.392;2024-01-06T06:55:35;0.1;;;0.1;;
59986;SDS011;46181;51.498;5.392;2024-01-06T07:00:06;0.1;;;0.1;;
59986;SDS011;46181;51.498;5.392;2024-01-06T07:04:35;0.1;;;0.1;;
59986;SDS011;46181;51.498;5.392;2024-01-06T07:09:05;0.2;;;0.2;;
59986;SDS011;46181;51.498;5.392;2024-01-06T07:13:35;0.2;;;0.2;;
59986;SDS011;46181;51.498;5.392;2024-01-06T07:18:07;0.152;;;0.152;;
59986;SDS011;46181;51.498;5.392;2024-01-06T07:22:35;0.22;;;0.22;;
59986;SDS011;46181;51.498;5.392;2024-01-06T07:27:05;0.208;;;0.208;;
59986;SDS011;46181;51.498;5.392;2024-01-06T07:31:35;0.1;;;0.1;;
59986;SDS011;46181;51.498;5.392;2024-01-06T07:36:05;0.2;;;0.2;;
59986;SDS011;46181;51.498;5.392;2024-01-06T07:40:35;0.2;;;0.2;;
59986;SDS011;46181;51.498;5.392;2024-01-06T07:45:06;0.2;;;0.2;;
59986;SDS011;46181;51.498;5.392;2024-01-06T07:49:35;0.2;;;0.2;;
59986;SDS011;46181;51.498;5.392;2024-01-06T07:54:05;0.196;;;0.196;;
59986;SDS011;46181;51.498;5.392;2024-01-06T07:58:35;0.2;;;0.2;;
59986;SDS011;46181;51.498;5.392;2024-01-06T08:03:05;0.592;;;0.468;;
59986;SDS011;46181;51.498;5.392;2024-01-06T08:07:35;0.2;;;0.2;;
59986;SDS011;46181;51.498;5.392;2024-01-06T08:12:06;0.264;;;0.264;;
59986;SDS011;46181;51.498;5.392;2024-01-06T08:16:35;0.288;;;0.288;;
59986;SDS011;46181;51.498;5.392;2024-01-06T08:21:05;0.1;;;0.1;;
59986;SDS011;46181;51.498;5.392;2024-01-06T08:25:35;0.1;;;0.1;;
59986;SDS011;46181;51.498;5.392;2024-01-06T08:30:06;0.16;;;0.16;;
59986;SDS011;46181;51.498;5.392;2024-01-06T08:34:35;0.196;;;0.196;;
59986;SDS011;46181;51.498;5.392;2024-01-06T08:39:05;0.492;;;0.252;;
59986;SDS011;46181;51.498;5.392;2024-01-06T08:43:35;0.2;;;0.2;;
59986;SDS011;46181;51.498;5.392;2024-01-06T08:48:06;0.1;;;0.1;;
59986;SDS011;46181;51.498;5.392;2024-01-06T08:52:35;0.2;;;0.2;;
59986;SDS011;46181;51.498;5.392;2024-01-06T08:57:05;0.2;;;0.2;;
59986;SDS011;46181;51.498;5.392;2024-01-06T09:01:35;0.2;;;0.2;;
59986;SDS011;46181;51.498;5.392;2024-01-06T09:06:05;0.212;;;0.212;;
59986;SDS011;46181;51.498;5.392;2024-01-06T09:10:35;0.2;;;0.2;;
59986;SDS011;46181;51.498;5.392;2024-01-06T09:15:05;0.3;;;0.3;;
59986;SDS011;46181;51.498;5.392;2024-01-06T09:19:35;0.152;;;0.152;;
59986;SDS011;46181;51.498;5.392;2024-01-06T09:24:05;0.428;;;0.248;;
59986;SDS011;46181;51.498;5.392;2024-01-06T09:28:35;0.204;;;0.204;;
59986;SDS011;46181;51.498;5.392;2024-01-06T09:33:05;0.244;;;0.244;;
59986;SDS011;46181;51.498;5.392;2024-01-06T09:37:35;0.264;;;0.264;;
59986;SDS011;46181;51.498;5.392;2024-01-06T09:42:05;0.468;;;0.468;;
59986;SDS011;46181;51.498;5.392;2024-01-06T09:46:35;0.688;;;0.56;;
59986;SDS011;46181;51.498;5.392;2024-01-06T09:51:05;0.584;;;0.416;;
59986;SDS011;46181;51.498;5.392;2024-01-06T09:55:35;0.372;;;0.372;;
59986;SDS011;46181;51.498;5.392;2024-01-06T10:00:06;0.38;;;0.38;;
59986;SDS011;46181;51.498;5.392;2024-01-06T10:04:35;0.668;;;0.504;;
59986;SDS011;46181;51.498;5.392;2024-01-06T10:09:05;0.436;;;0.396;;
59986;SDS011;46181;51.498;5.392;2024-01-06T10:13:35;0.148;;;0.148;;
59986;SDS011;46181;51.498;5.392;2024-01-06T10:18:05;0.112;;;0.112;;
59986;SDS011;46181;51.498;5.392;2024-01-06T10:22:35;0.2;;;0.2;;
59986;SDS011;46181;51.498;5.392;2024-01-06T10:27:05;0.176;;;0.176;;
59986;SDS011;46181;51.498;5.392;2024-01-06T10:31:35;0.1;;;0.1;;
59986;SDS011;46181;51.498;5.392;2024-01-06T10:36:06;0.928;;;0.9;;
59986;SDS011;46181;51.498;5.392;2024-01-06T10:40:35;0.2;;;0.2;;
59986;SDS011;46181;51.498;5.392;2024-01-06T10:45:06;0.188;;;0.188;;
59986;SDS011;46181;51.498;5.392;2024-01-06T10:49:35;0.2;;;0.2;;
59986;SDS011;46181;51.498;5.392;2024-01-06T10:54:05;30.94;;;7.787999;;
59986;SDS011;46181;51.498;5.392;2024-01-06T10:58:35;0.604;;;0.436;;
59986;SDS011;46181;51.498;5.392;2024-01-06T11:03:05;0.2;;;0.2;;
59986;SDS011;46181;51.498;5.392;2024-01-06T11:07:35;0.56;;;0.352;;
59986;SDS011;46181;51.498;5.392;2024-01-06T11:12:06;0.224;;;0.224;;
59986;SDS011;46181;51.498;5.392;2024-01-06T11:16:38;0.22;;;0.22;;
59986;SDS011;46181;51.498;5.392;2024-01-06T11:21:21;0.38;;;0.38;;
59986;SDS011;46181;51.498;5.392;2024-01-06T11:25:35;0.28;;;0.28;;
59986;SDS011;46181;51.498;5.392;2024-01-06T11:30:06;0.42;;;0.42;;
59986;SDS011;46181;51.498;5.392;2024-01-06T11:34:35;0.184;;;0.184;;
59986;SDS011;46181;51.498;5.392;2024-01-06T11:39:05;0.424;;;0.424;;
59986;SDS011;46181;51.498;5.392;2024-01-06T11:43:35;0.272;;;0.272;;
59986;SDS011;46181;51.498;5.392;2024-01-06T11:48:06;0.236;;;0.236;;
59986;SDS011;46181;51.498;5.392;2024-01-06T11:52:35;0.2;;;0.2;;
59986;SDS011;46181;51.498;5.392;2024-01-06T11:57:05;0.296;;;0.296;;
59986;SDS011;46181;51.498;5.392;2024-01-06T12:01:39;0.236;;;0.236;;
59986;SDS011;46181;51.498;5.392;2024-01-06T12:06:05;0.2;;;0.2;;
59986;SDS011;46181;51.498;5.392;2024-01-06T12:10:35;0.2;;;0.2;;
59986;SDS011;46181;51.498;5.392;2024-01-06T12:15:05;0.2;;;0.2;;
59986;SDS011;46181;51.498;5.392;2024-01-06T12:19:35;0.296;;;0.296;;
59986;SDS011;46181;51.498;5.392;2024-01-06T12:24:16;4.16;;;0.676;;
59986;SDS011;46181;51.498;5.392;2024-01-06T12:28:38;0.2;;;0.2;;
59986;SDS011;46181;51.498;5.392;2024-01-06T12:33:05;0.3;;;0.3;;
59986;SDS011;46181;51.498;5.392;2024-01-06T12:37:35;0.264;;;0.264;;
59986;SDS011;46181;51.498;5.392;2024-01-06T12:42:05;0.2;;;0.2;;
59986;SDS011;46181;51.498;5.392;2024-01-06T12:46:35;7.424;;;4.904001;;
59986;SDS011;46181;51.498;5.392;2024-01-06T12:51:05;8.712;;;5.151999;;
59986;SDS011;46181;51.498;5.392;2024-01-06T12:55:35;11.372;;;6.44;;
59986;SDS011;46181;51.498;5.392;2024-01-06T13:00:06;9.932001;;;5.544;;
59986;SDS011;46181;51.498;5.392;2024-01-06T13:04:35;9.459999;;;5.464;;
59986;SDS011;46181;51.498;5.392;2024-01-06T13:09:05;9.511999;;;5.456;;
59986;SDS011;46181;51.498;5.392;2024-01-06T13:13:35;10.896;;;5.364;;
59986;SDS011;46181;51.498;5.392;2024-01-06T13:18:05;9.424;;;5.56;;
59986;SDS011;46181;51.498;5.392;2024-01-06T13:22:35;10.964;;;6.840001;;
59986;SDS011;46181;51.498;5.392;2024-01-06T13:27:05;19.696;;;11.972;;
59986;SDS011;46181;51.498;5.392;2024-01-06T13:31:35;11.584;;;7.592001;;
59986;SDS011;46181;51.498;5.392;2024-01-06T13:36:06;12.676;;;8.74;;
59986;SDS011;46181;51.498;5.392;2024-01-06T13:40:35;9.639998;;;6.528;;
59986;SDS011;46181;51.498;5.392;2024-01-06T13:45:06;10.96;;;5.987999;;
59986;SDS011;46181;51.498;5.392;2024-01-06T13:49:35;8.128;;;4.751999;;
59986;SDS011;46181;51.498;5.392;2024-01-06T13:54:05;9.936;;;5.436;;
59986;SDS011;46181;51.498;5.392;2024-01-06T13:58:35;11.196;;;6.412001;;
59986;SDS011;46181;51.498;5.392;2024-01-06T14:03:05;10.684;;;5.160001;;
59986;SDS011;46181;51.498;5.392;2024-01-06T14:07:35;11.108;;;5.760001;;
59986;SDS011;46181;51.498;5.392;2024-01-06T14:12:06;9.300001;;;5.091999;;
59986;SDS011;46181;51.498;5.392;2024-01-06T14:16:35;12.324;;;6.496002;;
59986;SDS011;46181;51.498;5.392;2024-01-06T14:21:05;9.931998;;;5.544;;
59986;SDS011;46181;51.498;5.392;2024-01-06T14:25:35;7.783999;;;5.572;;
59986;SDS011;46181;51.498;5.392;2024-01-06T14:30:06;8.068;;;5.184;;
59986;SDS011;46181;51.498;5.392;2024-01-06T14:34:35;10.4;;;5.768001;;
59986;SDS011;46181;51.498;5.392;2024-01-06T14:39:05;9.952;;;4.812001;;
59986;SDS011;46181;51.498;5.392;2024-01-06T14:43:35;10.804;;;5.804001;;
59986;SDS011;46181;51.498;5.392;2024-01-06T14:48:06;10.2;;;5.284;;
59986;SDS011;46181;51.498;5.392;2024-01-06T14:52:35;8.155998;;;5.352;;
59986;SDS011;46181;51.498;5.392;2024-01-06T14:57:05;8.476001;;;5.504;;
59986;SDS011;46181;51.498;5.392;2024-01-06T15:01:35;9.368002;;;5.508;;
59986;SDS011;46181;51.498;5.392;2024-01-06T15:06:05;9.272;;;5.284;;
59986;SDS011;46181;51.498;5.392;2024-01-06T15:10:35;9.56;;;5.948001;;
59986;SDS011;46181;51.498;5.392;2024-01-06T15:15:06;10.908;;;5.848;;
59986;SDS011;46181;51.498;5.392;2024-01-06T15:19:35;13.548;;;6.516;;
59986;SDS011;46181;51.498;5.392;2024-01-06T15:24:05;13.14;;;6.103998;;
59986;SDS011;46181;51.498;5.392;2024-01-06T15:28:35;12.592;;;6.404;;
59986;SDS011;46181;51.498;5.392;2024-01-06T15:33:05;11.276;;;6.840001;;
59986;SDS011;46181;51.498;5.392;2024-01-06T15:37:35;13.824;;;7.468001;;
59986;SDS011;46181;51.498;5.392;2024-01-06T15:42:06;14.66;;;6.900001;;
59986;SDS011;46181;51.498;5.392;2024-01-06T15:46:35;13.052;;;8.1;;
59986;SDS011;46181;51.498;5.392;2024-01-06T15:51:05;28.044;;;16.848;;
59986;SDS011;46181;51.498;5.392;2024-01-06T15:55:35;42.924;;;22.164;;
59986;SDS011;46181;51.498;5.392;2024-01-06T16:00:06;16.716;;;9.144;;
59986;SDS011;46181;51.498;5.392;2024-01-06T16:04:35;24.46;;;16.268;;
59986;SDS011;46181;51.498;5.392;2024-01-06T16:09:05;41.012;;;18.008;;
59986;SDS011;46181;51.498;5.392;2024-01-06T16:13:35;16.876;;;9.803999;;
59986;SDS011;46181;51.498;5.392;2024-01-06T16:18:06;24.212;;;13.596;;
59986;SDS011;46181;51.498;5.392;2024-01-06T16:22:35;18.392;;;11.128;;
59986;SDS011;46181;51.498;5.392;2024-01-06T16:27:06;23.132;;;11.884;;
59986;SDS011;46181;51.498;5.392;2024-01-06T16:31:35;17.432;;;9.052;;
59986;SDS011;46181;51.498;5.392;2024-01-06T16:36:06;19.112;;;11.088;;
59986;SDS011;46181;51.498;5.392;2024-01-06T16:40:35;14.412;;;8.624001;;
59986;SDS011;46181;51.498;5.392;2024-01-06T16:45:06;17.436;;;9.748002;;
59986;SDS011;46181;51.498;5.392;2024-01-06T16:49:35;23.124;;;14.2;;
59986;SDS011;46181;51.498;5.392;2024-01-06T16:54:05;16.324;;;9.827999;;
59986;SDS011;46181;51.498;5.392;2024-01-06T16:58:35;15.744;;;9.408001;;
59986;SDS011;46181;51.498;5.392;2024-01-06T17:03:06;13.036;;;7.696001;;
59986;SDS011;46181;51.498;5.392;2024-01-06T17:07:36;14.32;;;8.612;;
59986;SDS011;46181;51.498;5.392;2024-01-06T17:12:06;13.836;;;7.811999;;
59986;SDS011;46181;51.498;5.392;2024-01-06T17:16:35;17.488;;;9.364001;;
59986;SDS011;46181;51.498;5.392;2024-01-06T17:21:06;12.764;;;6.76;;
59986;SDS011;46181;51.498;5.392;2024-01-06T17:25:35;13.248;;;7.288;;
59986;SDS011;46181;51.498;5.392;2024-01-06T17:30:06;13.348;;;7.56;;
59986;SDS011;46181;51.498;5.392;2024-01-06T17:34:35;13.228;;;7.536;;
59986;SDS011;46181;51.498;5.392;2024-01-06T17:39:06;14.444;;;8.904;;
59986;SDS011;46181;51.498;5.392;2024-01-06T17:43:35;11.752;;;6.304001;;
59986;SDS011;46181;51.498;5.392;2024-01-06T17:48:06;13.32;;;7.92;;
59986;SDS011;46181;51.498;5.392;2024-01-06T17:52:35;11.628;;;7.032;;
59986;SDS011;46181;51.498;5.392;2024-01-06T17:57:06;13.12;;;7.131999;;
59986;SDS011;46181;51.498;5.392;2024-01-06T18:01:36;13.1;;;7.3;;
59986;SDS011;46181;51.498;5.392;2024-01-06T18:06:06;12.364;;;8.103998;;
59986;SDS011;46181;51.498;5.392;2024-01-06T18:10:35;11.64;;;7.548;;
59986;SDS011;46181;51.498;5.392;2024-01-06T18:15:09;13.712;;;8.86;;
59986;SDS011;46181;51.498;5.392;2024-01-06T18:19:35;10.604;;;6.74;;
59986;SDS011;46181;51.498;5.392;2024-01-06T18:24:06;17.056;;;8.580001;;
59986;SDS011;46181;51.498;5.392;2024-01-06T18:28:36;12.968;;;7.916;;
59986;SDS011;46181;51.498;5.392;2024-01-06T18:33:06;13.152;;;7.271999;;
59986;SDS011;46181;51.498;5.392;2024-01-06T18:37:35;12.168;;;6.988;;
59986;SDS011;46181;51.498;5.392;2024-01-06T18:42:06;13.376;;;7.263999;;
59986;SDS011;46181;51.498;5.392;2024-01-06T18:46:36;14.82;;;8.976001;;
59986;SDS011;46181;51.498;5.392;2024-01-06T18:51:06;12.796;;;8.063999;;
59986;SDS011;46181;51.498;5.392;2024-01-06T18:55:35;13.176;;;7.719999;;
59986;SDS011;46181;51.498;5.392;2024-01-06T19:00:06;12.184;;;7.555999;;
59986;SDS011;46181;51.498;5.392;2024-01-06T19:04:36;13.972;;;8.704001;;
59986;SDS011;46181;51.498;5.392;2024-01-06T19:09:06;14.072;;;8.691999;;
59986;SDS011;46181;51.498;5.392;2024-01-06T19:13:36;12.988;;;7.94;;
59986;SDS011;46181;51.498;5.392;2024-01-06T19:18:06;12.552;;;7.86;;
59986;SDS011;46181;51.498;5.392;2024-01-06T19:22:36;13.276;;;8.1;;
59986;SDS011;46181;51.498;5.392;2024-01-06T19:27:06;13.356;;;8.392001;;
59986;SDS011;46181;51.498;5.392;2024-01-06T19:31:36;14.528;;;8.216001;;
59986;SDS011;46181;51.498;5.392;2024-01-06T19:36:06;14.688;;;8.9;;
59986;SDS011;46181;51.498;5.392;2024-01-06T19:40:36;17.152;;;11.392;;
59986;SDS011;46181;51.498;5.392;2024-01-06T19:45:06;19.616;;;10.868;;
59986;SDS011;46181;51.498;5.392;2024-01-06T19:49:36;32.46;;;20.248;;
59986;SDS011;46181;51.498;5.392;2024-01-06T19:54:06;61.67601;;;27.852;;
59986;SDS011;46181;51.498;5.392;2024-01-06T19:58:36;17.916;;;11.82;;
59986;SDS011;46181;51.498;5.392;2024-01-06T20:03:06;12.468;;;8.560001;;
59986;SDS011;46181;51.498;5.392;2024-01-06T20:07:36;12.836;;;8.676001;;
59986;SDS011;46181;51.498;5.392;2024-01-06T20:12:06;13.932;;;9.323999;;
59986;SDS011;46181;51.498;5.392;2024-01-06T20:16:36;12.216;;;7.807999;;
59986;SDS011;46181;51.498;5.392;2024-01-06T20:21:06;14.504;;;9.279999;;
59986;SDS011;46181;51.498;5.392;2024-01-06T20:25:36;14.792;;;9.172;;
59986;SDS011;46181;51.498;5.392;2024-01-06T20:30:06;13.312;;;8.384001;;
59986;SDS011;46181;51.498;5.392;2024-01-06T20:34:36;16.704;;;9.06;;
59986;SDS011;46181;51.498;5.392;2024-01-06T20:39:06;14.276;;;9.792;;
59986;SDS011;46181;51.498;5.392;2024-01-06T20:43:36;16.336;;;9.348;;
59986;SDS011;46181;51.498;5.392;2024-01-06T20:48:06;17.276;;;10.228;;
59986;SDS011;46181;51.498;5.392;2024-01-06T20:52:36;19.028;;;9.468;;
59986;SDS011;46181;51.498;5.392;2024-01-06T20:57:06;22.128;;;12.488;;
59986;SDS011;46181;51.498;5.392;2024-01-06T21:01:36;55.63199;;;27.27999;;
59986;SDS011;46181;51.498;5.392;2024-01-06T21:06:06;93.01601;;;39.864;;
59986;SDS011;46181;51.498;5.392;2024-01-06T21:10:36;86.2;;;45.07999;;
59986;SDS011;46181;51.498;5.392;2024-01-06T21:15:06;18.016;;;10.6;;
59986;SDS011;46181;51.498;5.392;2024-01-06T21:19:36;17.852;;;12.912;;
59986;SDS011;46181;51.498;5.392;2024-01-06T21:24:06;16.176;;;9.524001;;
59986;SDS011;46181;51.498;5.392;2024-01-06T21:28:36;15.64;;;9.26;;
59986;SDS011;46181;51.498;5.392;2024-01-06T21:33:06;15.884;;;9.624001;;
59986;SDS011;46181;51.498;5.392;2024-01-06T21:37:36;15.196;;;9.172;;
59986;SDS011;46181;51.498;5.392;2024-01-06T21:42:06;26.708;;;14.932;;
59986;SDS011;46181;51.498;5.392;2024-01-06T21:46:36;18.264;;;10.972;;
59986;SDS011;46181;51.498;5.392;2024-01-06T21:51:06;18.848;;;12;;
59986;SDS011;46181;51.498;5.392;2024-01-06T21:55:38;18.56;;;12.192;;
59986;SDS011;46181;51.498;5.392;2024-01-06T22:00:06;15.972;;;10.016;;
59986;SDS011;46181;51.498;5.392;2024-01-06T22:04:36;16.224;;;9.44;;
59986;SDS011;46181;51.498;5.392;2024-01-06T22:09:06;17.88;;;10.088;;
59986;SDS011;46181;51.498;5.392;2024-01-06T22:13:36;17.06;;;10.28;;
59986;SDS011;46181;51.498;5.392;2024-01-06T22:18:06;18.472;;;10.94;;
59986;SDS011;46181;51.498;5.392;2024-01-06T22:22:36;16.904;;;9.747998;;
59986;SDS011;46181;51.498;5.392;2024-01-06T22:27:06;18.256;;;9.508001;;
59986;SDS011;46181;51.498;5.392;2024-01-06T22:31:36;16.26;;;9.459999;;
59986;SDS011;46181;51.498;5.392;2024-01-06T22:36:06;16.236;;;10.172;;
59986;SDS011;46181;51.498;5.392;2024-01-06T22:40:36;17.26;;;9.903999;;
59986;SDS011;46181;51.498;5.392;2024-01-06T22:45:06;17.1;;;9.656001;;
59986;SDS011;46181;51.498;5.392;2024-01-06T22:49:36;13.488;;;7.124001;;
59986;SDS011;46181;51.498;5.392;2024-01-06T22:54:06;13.572;;;7.264001;;
59986;SDS011;46181;51.498;5.392;2024-01-06T22:58:36;12.056;;;6.752;;
59986;SDS011;46181;51.498;5.392;2024-01-06T23:03:06;13.688;;;7.968;;
59986;SDS011;46181;51.498;5.392;2024-01-06T23:07:36;15.028;;;8.271999;;
59986;SDS011;46181;51.498;5.392;2024-01-06T23:12:06;20.328;;;8.748;;
59986;SDS011;46181;51.498;5.392;2024-01-06T23:16:36;15.304;;;7.339999;;
59986;SDS011;46181;51.498;5.392;2024-01-06T23:21:06;13.7;;;8.02;;
59986;SDS011;46181;51.498;5.392;2024-01-06T23:25:36;13.444;;;7.191999;;
59986;SDS011;46181;51.498;5.392;2024-01-06T23:30:07;14.156;;;7.719999;;
59986;SDS011;46181;51.498;5.392;2024-01-06T23:34:36;15.312;;;6.072001;;
59986;SDS011;46181;51.498;5.392;2024-01-06T23:39:06;11.716;;;7.360001;;
59986;SDS011;46181;51.498;5.392;2024-01-06T23:43:36;15.152;;;7.284;;
59986;SDS011;46181;51.498;5.392;2024-01-06T23:48:06;13.492;;;7.024;;
59986;SDS011;46181;51.498;5.392;2024-01-06T23:52:36;15.128;;;8.323999;;
59986;SDS011;46181;51.498;5.392;2024-01-06T23:57:06;18.556;;;8.096;;
